S73 Hermelin — DRCG — position and weather

sailwx.info

Track history (hours):
 
Tides and Currents Weather Stations Pressure Air Temp Water Temp Dewpoint Dewpoint Depression Visibility Wind Speed Wind Dir Waves Ship Positions

S73 Hermelin

Last reported at 2014-Aug-28 14:33 UTC. Time now 2014-Aug-30 02:27 UTC.
Position N 54°10' E 012°06'.

Length 58 m.

Type: Military. MMSI: 211210610.

Date/timePositionNaut miles runAvg speedWind from/ knotsBaromVisibWave heightAir tempDewpointWater temp
2014-Aug-28 14:33N 54°10' E 012°06'1313.0
2014-Aug-28 13:33N 54°14' E 011°45'14 6.6
2014-Aug-28 11:28N 54°13' E 011°22'11 0.5
2014-Aug-27 14:30N 54°02' E 011°24'6 5.9
2014-Aug-27 13:24N 53°57' E 011°17'910.8
2014-Aug-27 12:32N 54°05' E 011°27'7 6.3
2014-Aug-27 11:30N 54°10' E 011°34'2 2.7
2014-Aug-27 10:33N 54°11' E 011°38'8 8.0
2014-Aug-27 09:34N 54°11' E 011°51'1 0.6
2014-Aug-27 08:33N 54°12' E 011°51'6 6.1
2014-Aug-27 07:34N 54°12' E 012°01'3 0.2
2014-Aug-26 12:34N 54°11' E 012°06'10 9.5
2014-Aug-26 11:32N 54°17' E 011°53'7 6.8
2014-Aug-26 10:34N 54°18' E 011°41'4 3.9
2014-Aug-26 09:33N 54°18' E 011°48'9 9.3
2014-Aug-26 08:34N 54°13' E 012°01'4 0.3
2014-Aug-25 15:11N 54°10' E 012°07'811.9
2014-Aug-25 14:33N 54°14' E 011°56'14 4.1
2014-Aug-25 11:15N 54°12' E 011°33'8 9.0
2014-Aug-25 10:23N 54°12' E 011°46'4 4.7
2014-Aug-25 09:34N 54°13' E 011°40'6 6.4
2014-Aug-25 08:33N 54°14' E 011°50'8 8.2
2014-Aug-25 07:33N 54°13' E 012°04'  
2014-Aug-21 14:31N 54°14' E 012°01'1110.4
2014-Aug-21 13:30N 54°12' E 011°43'5 5.6
2014-Aug-21 12:34N 54°16' E 011°50'4 2.7
2014-Aug-21 11:15N 54°12' E 011°47'1 1.4
2014-Aug-21 10:15N 54°11' E 011°46'3 3.5
2014-Aug-21 09:32N 54°11' E 011°50'3 3.1
2014-Aug-21 08:33N 54°11' E 011°55'7 6.6
2014-Aug-21 07:33N 54°10' E 012°06'1 0.0
2014-Aug-20 14:24N 54°10' E 012°07'0 0.4
2014-Aug-20 13:33N 54°10' E 012°07'0 0.1
2014-Aug-20 12:34N 54°10' E 012°07'0 0.0
2014-Aug-20 11:33N 54°10' E 012°07'0 0.1
2014-Aug-20 10:33N 54°10' E 012°07'0 0.0
2014-Aug-19 16:13N 54°10' E 012°06'  
Track history (hours):
 
Tides and Currents Weather Stations Pressure Air Temp Water Temp Dewpoint Dewpoint Depression Visibility Wind Speed Wind Dir Waves Ship Positions

S73 Hermelin

Last reported at 2014-Aug-28 14:33 UTC. Time now 2014-Aug-30 02:27 UTC.
Position N 54°10' E 012°06'.

Length 58 m.

Type: Military. MMSI: 211210610.

Date/timePositionNaut miles runAvg speedWind from/ knotsBaromVisibWave heightAir tempDewpointWater temp
2014-Aug-28 14:33N 54°10' E 012°06'1313.0
2014-Aug-28 13:33N 54°14' E 011°45'14 6.6
2014-Aug-28 11:28N 54°13' E 011°22'11 0.5
2014-Aug-27 14:30N 54°02' E 011°24'6 5.9
2014-Aug-27 13:24N 53°57' E 011°17'910.8
2014-Aug-27 12:32N 54°05' E 011°27'7 6.3
2014-Aug-27 11:30N 54°10' E 011°34'2 2.7
2014-Aug-27 10:33N 54°11' E 011°38'8 8.0
2014-Aug-27 09:34N 54°11' E 011°51'1 0.6
2014-Aug-27 08:33N 54°12' E 011°51'6 6.1
2014-Aug-27 07:34N 54°12' E 012°01'3 0.2
2014-Aug-26 12:34N 54°11' E 012°06'10 9.5
2014-Aug-26 11:32N 54°17' E 011°53'7 6.8
2014-Aug-26 10:34N 54°18' E 011°41'4 3.9
2014-Aug-26 09:33N 54°18' E 011°48'9 9.3
2014-Aug-26 08:34N 54°13' E 012°01'4 0.3
2014-Aug-25 15:11N 54°10' E 012°07'811.9
2014-Aug-25 14:33N 54°14' E 011°56'14 4.1
2014-Aug-25 11:15N 54°12' E 011°33'8 9.0
2014-Aug-25 10:23N 54°12' E 011°46'4 4.7
2014-Aug-25 09:34N 54°13' E 011°40'6 6.4
2014-Aug-25 08:33N 54°14' E 011°50'8 8.2
2014-Aug-25 07:33N 54°13' E 012°04'  
2014-Aug-21 14:31N 54°14' E 012°01'1110.4
2014-Aug-21 13:30N 54°12' E 011°43'5 5.6
2014-Aug-21 12:34N 54°16' E 011°50'4 2.7
2014-Aug-21 11:15N 54°12' E 011°47'1 1.4
2014-Aug-21 10:15N 54°11' E 011°46'3 3.5
2014-Aug-21 09:32N 54°11' E 011°50'3 3.1
2014-Aug-21 08:33N 54°11' E 011°55'7 6.6
2014-Aug-21 07:33N 54°10' E 012°06'1 0.0
2014-Aug-20 14:24N 54°10' E 012°07'0 0.4
2014-Aug-20 13:33N 54°10' E 012°07'0 0.1
2014-Aug-20 12:34N 54°10' E 012°07'0 0.0
2014-Aug-20 11:33N 54°10' E 012°07'0 0.1
2014-Aug-20 10:33N 54°10' E 012°07'0 0.0
2014-Aug-19 16:13N 54°10' E 012°06'  

Dump ship's entire track history